Time;durP1;ratioP1;P1;durP2;ratioP2;P2;SDS_P1;SDS_P2;PMS_P1;PMS_P2;Temp;Humidity;BMP_temperature;BMP_pressure;BME280_temperature;BME280_humidity;BME280_pressure;Samples;Min_cycle;Max_cycle;Signal;HPM_P1;HPM_P2
2021/06/18 00:01:56;;;;;;;10.45;4.18;;;;;;;9.67;69.46;101605.94;5005220;28;20061;-84
2021/06/18 00:04:21;;;;;;;9.45;5.05;;;;;;;9.57;69.05;101597.06;4993543;28;20061;-84
2021/06/18 00:06:47;;;;;;;9.20;4.55;;;;;;;9.41;69.50;101610.28;5008958;28;20063;-84
2021/06/18 00:09:13;;;;;;;10.40;4.00;;;;;;;9.39;70.23;101634.63;4994246;28;20050;-85
2021/06/18 00:11:38;;;;;;;11.07;4.65;;;;;;;9.18;70.33;101609.78;4993039;28;20029;-85
2021/06/18 00:14:05;;;;;;;11.05;4.57;;;;;;;9.25;71.29;101635.91;5025185;28;20025;-84
2021/06/18 00:16:33;;;;;;;8.73;4.22;;;;;;;9.17;70.25;101622.38;5001781;28;20052;-85
2021/06/18 00:18:59;;;;;;;13.48;4.57;;;;;;;9.18;70.76;101642.88;5007226;28;20040;-85
2021/06/18 00:21:25;;;;;;;9.82;4.13;;;;;;;9.12;71.27;101648.78;4992072;28;20120;-84
2021/06/18 00:23:50;;;;;;;9.77;4.63;;;;;;;8.89;71.30;101607.19;5011366;28;20025;-84
2021/06/18 00:26:16;;;;;;;11.18;3.88;;;;;;;9.08;71.47;101634.00;4990025;28;20028;-85
2021/06/18 00:28:42;;;;;;;8.90;4.22;;;;;;;8.91;71.40;101608.72;5024861;28;20042;-84
2021/06/18 00:31:08;;;;;;;9.02;3.97;;;;;;;8.97;71.80;101601.94;5006431;28;20025;-84
2021/06/18 00:33:34;;;;;;;9.23;4.43;;;;;;;9.24;71.89;101647.66;5004825;28;20555;-85
2021/06/18 00:35:59;;;;;;;10.07;4.00;;;;;;;9.21;71.01;101637.22;5001784;28;20033;-84
2021/06/18 00:38:25;;;;;;;12.82;4.28;;;;;;;9.11;71.02;101636.38;5006422;28;20034;-85
2021/06/18 00:40:50;;;;;;;8.02;3.90;;;;;;;8.91;72.09;101638.25;5025229;28;20041;-85
2021/06/18 00:43:16;;;;;;;7.25;4.10;;;;;;;8.85;73.15;101651.38;5003903;28;20956;-85
2021/06/18 00:45:41;;;;;;;9.18;4.00;;;;;;;8.80;73.20;101636.56;5007709;28;20040;-86
2021/06/18 00:48:07;;;;;;;11.75;4.68;;;;;;;8.74;72.95;101614.84;5010153;28;20103;-84
2021/06/18 00:50:33;;;;;;;9.82;4.32;;;;;;;9.01;72.85;101646.28;5009230;28;20036;-84
2021/06/18 00:52:59;;;;;;;8.57;4.13;;;;;;;8.95;72.50;101649.53;4989956;28;20104;-86
2021/06/18 00:55:25;;;;;;;10.32;3.80;;;;;;;8.86;72.98;101636.97;5008806;28;20101;-85
2021/06/18 00:57:51;;;;;;;9.25;3.90;;;;;;;8.85;73.63;101646.03;5009814;28;20017;-84
2021/06/18 01:00:17;;;;;;;8.27;4.53;;;;;;;8.84;73.19;101644.31;5007496;28;20648;-86
2021/06/18 01:02:43;;;;;;;9.52;4.57;;;;;;;8.90;72.85;101649.97;4992097;28;20025;-85
2021/06/18 01:05:11;;;;;;;8.73;3.88;;;;;;;8.87;72.92;101639.53;5001498;28;20103;-83
2021/06/18 01:07:57;;;;;;;12.50;4.22;;;;;;;8.89;72.95;101642.06;5007777;28;20143;-86
2021/06/18 01:10:28;;;;;;;8.35;3.92;;;;;;;8.87;72.76;101638.69;4969288;28;20991;-84
2021/06/18 01:13:09;;;;;;;8.55;4.10;;;;;;;8.80;73.08;101633.88;5009039;28;20041;-84
2021/06/18 01:15:38;;;;;;;8.02;3.97;;;;;;;8.90;73.15;101638.41;4990934;28;20033;-84
2021/06/18 01:18:06;;;;;;;11.15;4.10;;;;;;;8.89;72.53;101636.69;5007562;28;20026;-85
2021/06/18 01:20:48;;;;;;;8.95;3.53;;;;;;;8.86;73.58;101637.81;5010161;28;20038;-85
2021/06/18 01:23:21;;;;;;;8.27;3.60;;;;;;;8.87;73.04;101638.69;5024229;28;20037;-85
2021/06/18 01:25:50;;;;;;;8.20;4.05;;;;;;;8.75;72.29;101620.03;5021386;28;20998;-85
2021/06/18 01:28:54;;;;;;;10.25;4.22;;;;;;;8.83;72.96;101642.63;5011355;28;20029;-84
2021/06/18 01:31:22;;;;;;;11.32;3.90;;;;;;;8.68;72.95;101642.22;4999932;28;20505;-85
2021/06/18 01:33:52;;;;;;;8.20;3.50;;;;;;;8.53;73.59;101633.75;5006081;28;20029;-85
2021/06/18 01:36:18;;;;;;;10.73;4.10;;;;;;;8.58;73.60;101643.06;5007151;28;20474;-85
2021/06/18 01:38:47;;;;;;;9.88;3.75;;;;;;;8.46;73.27;101641.50;4991751;28;20071;-85
2021/06/18 01:41:20;;;;;;;7.28;3.72;;;;;;;8.50;73.76;101642.94;5007975;28;21159;-86
2021/06/18 01:43:47;;;;;;;8.30;4.28;;;;;;;8.35;73.63;101650.50;5023456;28;20504;-85
2021/06/18 01:46:15;;;;;;;8.65;3.90;;;;;;;8.24;74.63;101645.28;5004588;28;20147;-86
2021/06/18 01:48:44;;;;;;;7.88;4.05;;;;;;;8.20;74.57;101646.50;5005997;28;20044;-86
2021/06/18 01:51:09;;;;;;;7.97;3.70;;;;;;;8.02;75.04;101635.66;5006009;28;20124;-84
2021/06/18 01:53:35;;;;;;;7.90;4.10;;;;;;;8.05;75.65;101643.41;5009523;28;20084;-85
2021/06/18 01:56:02;;;;;;;8.82;3.85;;;;;;;8.12;74.90;101657.06;5008937;28;20067;-85
2021/06/18 01:58:29;;;;;;;8.48;3.65;;;;;;;7.93;75.56;101645.34;4991782;28;20124;-85
2021/06/18 02:00:55;;;;;;;9.05;3.72;;;;;;;8.01;75.82;101659.88;5009420;28;20040;-85
2021/06/18 02:03:26;;;;;;;8.15;3.92;;;;;;;7.80;76.28;101649.25;5009684;28;20037;-85
2021/06/18 02:05:55;;;;;;;9.68;3.58;;;;;;;7.80;76.33;101643.88;5009102;28;20413;-84
2021/06/18 02:08:21;;;;;;;8.13;3.50;;;;;;;7.68;76.64;101619.91;5004979;28;20022;-85
2021/06/18 02:10:48;;;;;;;7.32;3.53;;;;;;;7.74;76.36;101644.44;5005066;28;20032;-85
2021/06/18 02:13:14;;;;;;;9.43;3.33;;;;;;;7.54;76.32;101614.06;5005731;28;20032;-85
2021/06/18 02:15:42;;;;;;;9.13;3.63;;;;;;;7.57;76.66;101624.50;5020860;28;21415;-85
2021/06/18 02:18:12;;;;;;;8.63;3.85;;;;;;;7.64;77.14;101652.44;4991175;28;20021;-85
2021/06/18 02:20:38;;;;;;;8.13;3.50;;;;;;;7.55;77.35;101643.38;5002731;28;20508;-84
2021/06/18 02:23:06;;;;;;;8.15;3.00;;;;;;;7.38;77.86;101610.09;4987520;28;20061;-85
2021/06/18 02:25:32;;;;;;;9.57;3.55;;;;;;;7.39;79.32;101633.16;5020119;28;20022;-84
2021/06/18 02:27:58;;;;;;;6.07;2.92;;;;;;;7.60;79.18;101643.00;5019355;28;20029;-84
2021/06/18 02:30:24;;;;;;;7.13;3.15;;;;;;;7.55;78.52;101626.50;5006854;28;20036;-84
2021/06/18 02:32:51;;;;;;;7.63;3.40;;;;;;;7.47;78.36;101622.66;5008240;28;20670;-84
2021/06/18 02:35:16;;;;;;;8.18;3.33;;;;;;;7.55;78.19;101618.47;5006878;28;20044;-84
2021/06/18 02:37:42;;;;;;;6.50;3.08;;;;;;;7.68;77.76;101641.31;5004034;28;20482;-85
2021/06/18 02:40:08;;;;;;;8.43;3.35;;;;;;;7.80;77.48;101650.09;4994288;28;20147;-85
2021/06/18 02:42:33;;;;;;;9.02;3.17;;;;;;;7.79;77.05;101647.56;5006837;28;20036;-85
2021/06/18 02:44:59;;;;;;;5.78;2.65;;;;;;;7.75;76.81;101648.81;5010424;28;20088;-85
2021/06/18 02:47:50;;;;;;;6.75;3.28;;;;;;;7.75;76.46;101655.00;5005650;28;20037;-85
2021/06/18 02:50:24;;;;;;;8.32;3.20;;;;;;;7.69;77.09;101658.22;4979413;28;21246;-85
2021/06/18 02:53:19;;;;;;;6.93;2.92;;;;;;;7.58;77.08;101661.00;5005372;28;20030;-85
2021/06/18 02:55:57;;;;;;;7.05;2.92;;;;;;;7.34;78.31;101638.06;5008649;28;20416;-85
2021/06/18 02:58:25;;;;;;;5.13;2.65;;;;;;;7.35;77.89;101650.47;5005394;28;20060;-84
2021/06/18 03:00:52;;;;;;;7.15;2.97;;;;;;;7.41;78.06;101651.75;4991695;28;20029;-85
2021/06/18 03:03:29;;;;;;;5.93;2.83;;;;;;;7.40;77.34;101644.72;4993608;28;20043;-84
2021/06/18 03:05:58;;;;;;;6.10;3.05;;;;;;;7.44;77.52;101649.69;5006108;28;20037;-84
2021/06/18 03:08:29;;;;;;;10.00;4.13;;;;;;;7.41;77.38;101643.72;5010878;28;20053;-85
2021/06/18 03:10:55;;;;;;;5.03;2.88;;;;;;;7.27;78.22;101628.88;5009991;28;20033;-84
2021/06/18 03:13:24;;;;;;;6.78;3.00;;;;;;;7.26;77.40;101620.00;4993413;28;20552;-84
2021/06/18 03:15:50;;;;;;;7.05;3.13;;;;;;;7.34;76.68;101630.03;5023479;28;20025;-84
2021/06/18 03:18:19;;;;;;;5.57;2.80;;;;;;;7.36;76.90;101643.31;4996442;28;20029;-86
2021/06/18 03:20:45;;;;;;;6.43;3.63;;;;;;;7.36;76.46;101633.44;5009975;28;20036;-83
2021/06/18 03:23:13;;;;;;;6.15;2.72;;;;;;;7.21;77.05;101610.69;5010423;28;20071;-86
2021/06/18 03:25:40;;;;;;;5.07;2.60;;;;;;;7.29;76.33;101636.78;4995300;28;20022;-85
2021/06/18 03:28:06;;;;;;;6.32;3.08;;;;;;;7.26;76.21;101629.88;5009805;28;20029;-85
2021/06/18 03:30:33;;;;;;;7.78;3.58;;;;;;;7.28;76.36;101635.94;4999238;28;20052;-84
2021/06/18 03:32:59;;;;;;;14.20;3.30;;;;;;;6.86;76.90;101592.34;5011438;28;20089;-85
2021/06/18 03:35:25;;;;;;;7.10;3.00;;;;;;;7.15;77.19;101649.53;5016226;28;20025;-84
2021/06/18 03:37:51;;;;;;;4.80;2.85;;;;;;;6.97;76.76;101646.59;4992437;28;20055;-86
2021/06/18 03:40:19;;;;;;;6.32;3.30;;;;;;;6.85;78.18;101636.91;5000843;28;20117;-85
2021/06/18 03:42:45;;;;;;;5.85;2.83;;;;;;;6.75;77.62;101638.69;5003628;28;20025;-84
2021/06/18 03:45:11;;;;;;;7.07;3.03;;;;;;;6.63;77.81;101627.19;5003045;28;20025;-85
2021/06/18 03:47:37;;;;;;;7.00;3.00;;;;;;;6.68;77.81;101643.69;4994460;28;20053;-85
2021/06/18 03:50:05;;;;;;;5.75;3.10;;;;;;;6.71;78.46;101650.63;5007027;28;20048;-84
2021/06/18 03:52:31;;;;;;;6.10;2.95;;;;;;;6.56;78.34;101636.69;5009759;28;20026;-85
2021/06/18 03:54:57;;;;;;;5.38;2.50;;;;;;;6.45;79.10;101653.63;5021245;28;20037;-85
2021/06/18 03:57:23;;;;;;;7.60;2.85;;;;;;;6.49;78.48;101648.91;5013666;28;20021;-85
2021/06/18 03:59:48;;;;;;;6.13;2.58;;;;;;;6.53;78.72;101647.66;5002269;28;20033;-85
2021/06/18 04:02:15;;;;;;;6.75;3.10;;;;;;;6.53;78.35;101639.63;4999484;28;20025;-85
2021/06/18 04:04:42;;;;;;;4.80;2.45;;;;;;;6.58;78.17;101651.63;5010446;28;20022;-85
2021/06/18 04:07:10;;;;;;;5.93;2.88;;;;;;;6.41;78.04;101636.16;4992706;28;20014;-85
2021/06/18 04:09:39;;;;;;;5.45;2.45;;;;;;;6.39;78.14;101646.97;4990943;28;20032;-84
2021/06/18 04:12:09;;;;;;;3.63;2.20;;;;;;;6.48;78.69;101650.69;4998157;28;20040;-84
2021/06/18 04:14:36;;;;;;;4.82;2.60;;;;;;;6.47;78.70;101649.00;4995943;28;20061;-85
2021/06/18 04:17:06;;;;;;;5.45;2.80;;;;;;;6.58;78.68;101656.13;5009512;28;20434;-85
2021/06/18 04:19:32;;;;;;;5.50;2.42;;;;;;;6.47;78.12;101640.16;5017856;28;20548;-85
2021/06/18 04:22:01;;;;;;;6.07;2.70;;;;;;;6.50;78.02;101648.75;5025456;28;20029;-84
2021/06/18 04:24:26;;;;;;;5.95;2.95;;;;;;;6.50;78.21;101654.09;5009767;28;20466;-85
2021/06/18 04:26:52;;;;;;;4.60;2.45;;;;;;;6.53;78.09;101653.84;5012765;28;20025;-85
2021/06/18 04:29:17;;;;;;;7.13;2.78;;;;;;;6.60;77.63;101676.41;5006145;28;20026;-85
2021/06/18 04:31:44;;;;;;;7.78;3.65;;;;;;;6.54;77.70;101666.25;5016509;28;20029;-85
2021/06/18 04:34:09;;;;;;;7.72;3.15;;;;;;;6.44;78.30;101659.13;4996309;28;20039;-86
2021/06/18 04:36:38;;;;;;;7.00;3.67;;;;;;;6.52;78.52;101678.03;5018639;28;20104;-85
2021/06/18 04:39:05;;;;;;;7.03;3.47;;;;;;;6.43;78.53;101668.97;5016394;28;20040;-85
2021/06/18 04:41:30;;;;;;;6.05;3.33;;;;;;;6.37;79.00;101669.44;5002430;28;20159;-84
2021/06/18 04:43:56;;;;;;;6.55;3.10;;;;;;;6.50;78.24;101674.63;4996338;28;20057;-84
2021/06/18 04:46:22;;;;;;;6.18;3.05;;;;;;;6.47;78.21;101673.06;5014258;28;20029;-85
2021/06/18 04:48:47;;;;;;;4.97;3.08;;;;;;;6.63;78.03;101690.50;5011896;28;20110;-86
2021/06/18 04:51:15;;;;;;;7.00;2.88;;;;;;;6.65;78.03;101688.56;4998118;28;20527;-85
2021/06/18 04:53:41;;;;;;;5.85;2.83;;;;;;;6.68;77.83;101694.47;5015071;28;20028;-85
2021/06/18 04:56:06;;;;;;;5.25;2.60;;;;;;;6.74;77.21;101701.13;5001955;28;20101;-86
2021/06/18 04:58:32;;;;;;;6.47;2.60;;;;;;;6.72;77.36;101695.06;5011472;28;20486;-85
2021/06/18 05:00:57;;;;;;;3.88;2.33;;;;;;;6.64;77.99;101693.03;5010622;28;20037;-85
2021/06/18 05:03:23;;;;;;;8.43;2.88;;;;;;;6.73;78.04;101696.78;5017306;28;20687;-84
2021/06/18 05:05:48;;;;;;;4.68;1.88;;;;;;;6.59;78.03;101674.72;5022757;28;20032;-83
2021/06/18 05:08:14;;;;;;;3.38;2.10;;;;;;;6.69;77.65;101685.47;4990447;28;20017;-84
2021/06/18 05:10:39;;;;;;;4.93;2.17;;;;;;;6.58;77.94;101664.16;5014963;28;21513;-84
2021/06/18 05:13:05;;;;;;;4.05;2.28;;;;;;;6.83;78.04;101697.72;5015876;28;20033;-84
2021/06/18 05:15:30;;;;;;;5.38;2.75;;;;;;;6.88;78.04;101689.28;5008855;28;20113;-85
2021/06/18 05:17:55;;;;;;;5.07;2.40;;;;;;;6.81;78.04;101679.13;5011588;28;20021;-85
2021/06/18 05:20:21;;;;;;;3.60;2.00;;;;;;;7.02;78.35;101692.50;5000363;28;20405;-85
2021/06/18 05:22:46;;;;;;;4.68;2.40;;;;;;;6.99;77.64;101673.22;5023231;28;20051;-84
2021/06/18 05:25:12;;;;;;;4.50;2.30;;;;;;;7.16;77.43;101683.28;5009564;28;20032;-85
2021/06/18 05:27:38;;;;;;;5.88;2.03;;;;;;;7.21;77.77;101675.72;4997102;28;20196;-85
2021/06/18 05:30:05;;;;;;;5.22;2.40;;;;;;;7.34;77.44;101690.75;4998147;28;20025;-85
2021/06/18 05:32:31;;;;;;;3.55;2.20;;;;;;;7.49;77.54;101694.78;5012366;28;20521;-85
2021/06/18 05:34:57;;;;;;;5.22;2.35;;;;;;;7.47;77.14;101692.22;4989391;28;20025;-86
2021/06/18 05:37:22;;;;;;;6.32;2.65;;;;;;;7.58;77.61;101698.47;4997369;28;20051;-84
2021/06/18 05:39:47;;;;;;;7.55;3.00;;;;;;;7.58;77.48;101682.41;5001623;28;20040;-84
2021/06/18 05:42:13;;;;;;;9.13;3.28;;;;;;;7.55;77.63;101675.50;5005454;28;20025;-84
2021/06/18 05:44:38;;;;;;;7.45;2.58;;;;;;;7.71;77.19;101689.22;5008480;28;20037;-85
2021/06/18 05:47:04;;;;;;;10.40;2.55;;;;;;;7.88;77.55;101701.13;5006906;28;20026;-84
2021/06/18 05:49:29;;;;;;;4.85;2.95;;;;;;;8.02;76.99;101705.28;5013158;28;20025;-83
2021/06/18 05:51:55;;;;;;;5.25;2.28;;;;;;;8.02;77.49;101688.34;5002970;28;20032;-83
2021/06/18 05:54:20;;;;;;;6.15;2.60;;;;;;;8.17;76.76;101705.75;5032334;28;20052;-86
2021/06/18 05:56:45;;;;;;;5.70;2.97;;;;;;;8.19;77.59;101700.25;5013058;28;20057;-85
2021/06/18 05:59:11;;;;;;;7.90;2.95;;;;;;;8.28;77.23;101702.97;5020927;28;20029;-84
2021/06/18 06:01:36;;;;;;;6.57;2.33;;;;;;;8.24;76.66;101669.38;4997481;28;20029;-86
2021/06/18 06:04:02;;;;;;;7.75;2.78;;;;;;;8.26;77.28;101661.22;4990435;28;20032;-83
2021/06/18 06:06:28;;;;;;;8.43;2.60;;;;;;;8.41;76.61;101669.72;5011614;28;20029;-85
2021/06/18 06:08:54;;;;;;;7.43;2.60;;;;;;;8.72;75.98;101698.09;5000635;28;20041;-83
2021/06/18 06:11:24;;;;;;;6.85;2.42;;;;;;;8.72;76.20;101678.50;5015037;28;20397;-84
2021/06/18 06:13:50;;;;;;;6.13;2.28;;;;;;;8.88;76.08;101675.22;4993410;28;20100;-85
2021/06/18 06:16:16;;;;;;;12.02;2.67;;;;;;;8.89;75.58;101661.69;5013994;28;20891;-85
2021/06/18 06:18:41;;;;;;;6.20;2.20;;;;;;;9.14;74.65;101687.06;5031923;28;20029;-86
2021/06/18 06:21:07;;;;;;;5.07;2.08;;;;;;;9.22;74.57;101670.25;5002671;28;20105;-84
2021/06/18 06:23:33;;;;;;;7.63;2.40;;;;;;;9.19;74.36;101668.69;5011225;28;20120;-85
2021/06/18 06:25:58;;;;;;;6.38;2.17;;;;;;;9.52;74.00;101695.16;5010645;28;20055;-85
2021/06/18 06:28:24;;;;;;;10.98;2.63;;;;;;;9.57;73.52;101683.00;4995606;28;20040;-86
2021/06/18 06:30:50;;;;;;;7.70;3.10;;;;;;;9.47;73.48;101663.38;5008956;28;20036;-85
2021/06/18 06:33:15;;;;;;;6.47;2.35;;;;;;;9.61;73.02;101662.94;4985389;28;20022;-85
2021/06/18 06:35:40;;;;;;;6.20;2.15;;;;;;;9.77;72.42;101661.44;5007480;28;20030;-84
2021/06/18 06:38:06;;;;;;;8.10;2.42;;;;;;;9.90;72.28;101665.47;4992125;28;20025;-86
2021/06/18 06:40:31;;;;;;;7.60;2.30;;;;;;;10.00;72.47;101678.88;4993788;28;20036;-87
2021/06/18 06:42:57;;;;;;;7.75;2.55;;;;;;;9.81;71.86;101638.66;5007575;28;20029;-84
2021/06/18 06:45:23;;;;;;;5.78;2.38;;;;;;;9.98;72.14;101661.22;4991059;28;20053;-85
2021/06/18 06:47:50;;;;;;;5.80;2.60;;;;;;;10.18;72.16;101670.00;4994429;28;20024;-85
2021/06/18 06:50:16;;;;;;;5.55;2.35;;;;;;;10.14;71.53;101645.28;5013755;28;20025;-87
2021/06/18 06:52:41;;;;;;;5.93;2.55;;;;;;;10.11;71.47;101626.75;5009506;28;20080;-84
2021/06/18 06:55:07;;;;;;;4.43;2.75;;;;;;;10.33;71.52;101650.53;5015415;28;20631;-85
2021/06/18 06:57:33;;;;;;;9.52;2.67;;;;;;;10.51;72.12;101680.13;5014919;28;20498;-84
2021/06/18 06:59:58;;;;;;;6.20;2.60;;;;;;;10.40;71.79;101647.22;5022254;28;20056;-84
2021/06/18 07:02:24;;;;;;;5.65;1.88;;;;;;;10.56;71.42;101655.47;5023540;28;20229;-85
2021/06/18 07:04:49;;;;;;;6.75;2.63;;;;;;;10.65;70.69;101643.78;4988657;28;20029;-84
2021/06/18 07:07:15;;;;;;;5.10;1.83;;;;;;;10.82;70.53;101651.97;4998715;28;20477;-85
2021/06/18 07:09:40;;;;;;;5.95;2.08;;;;;;;11.03;69.96;101654.34;4993612;28;20105;-85
2021/06/18 07:12:07;;;;;;;5.43;1.67;;;;;;;11.06;69.33;101651.31;5001266;28;20048;-86
2021/06/18 07:14:37;;;;;;;7.38;1.98;;;;;;;11.20;69.13;101645.38;4999445;28;20029;-84
2021/06/18 07:17:03;;;;;;;4.10;1.83;;;;;;;11.30;69.11;101659.59;4998978;28;20697;-84
2021/06/18 07:19:28;;;;;;;6.47;2.08;;;;;;;11.42;68.58;101658.31;5000434;28;20609;-84
2021/06/18 07:21:53;;;;;;;6.90;2.30;;;;;;;11.57;68.40;101657.72;5001240;28;20427;-83
2021/06/18 07:24:19;;;;;;;5.13;1.90;;;;;;;11.69;67.36;101656.41;5000911;28;20029;-85
2021/06/18 07:26:44;;;;;;;5.28;2.38;;;;;;;11.55;67.45;101619.31;5015971;28;20021;-84
2021/06/18 07:29:10;;;;;;;5.95;1.80;;;;;;;11.86;66.37;101655.53;4998001;28;20033;-84
2021/06/18 07:31:35;;;;;;;6.85;2.47;;;;;;;11.74;66.23;101639.78;5022179;28;20026;-84
2021/06/18 07:37:04;;;;;;;4.93;1.75;;;;;;;12.04;66.65;101633.00;5142977;22;20076;-86
2021/06/18 07:39:30;;;;;;;7.78;2.05;;;;;;;12.07;66.59;101647.00;4996152;28;20022;-84
2021/06/18 07:41:56;;;;;;;4.90;1.92;;;;;;;12.05;66.05;101646.31;4989624;28;20033;-86
2021/06/18 07:44:21;;;;;;;5.28;1.88;;;;;;;12.25;65.49;101657.69;5004347;28;20052;-85
2021/06/18 07:46:47;;;;;;;9.38;1.90;;;;;;;12.32;65.39;101641.66;5002595;28;20026;-84
2021/06/18 07:49:12;;;;;;;4.38;1.52;;;;;;;12.39;64.71;101647.25;4993822;28;20418;-85
2021/06/18 07:51:38;;;;;;;7.30;1.95;;;;;;;12.40;64.13;101632.75;4995321;28;20029;-85
2021/06/18 07:54:03;;;;;;;7.28;1.70;;;;;;;12.59;63.43;101640.53;5006793;28;20029;-84
2021/06/18 07:56:32;;;;;;;7.20;2.30;;;;;;;12.82;63.20;101647.97;4997370;28;20025;-86
2021/06/18 07:58:58;;;;;;;3.45;1.55;;;;;;;12.99;61.62;101660.44;5009399;28;20029;-84
2021/06/18 08:01:23;;;;;;;4.85;1.75;;;;;;;13.11;60.72;101648.28;5008810;28;20032;-84
2021/06/18 08:03:49;;;;;;;5.32;1.83;;;;;;;13.25;60.54;101651.28;4997117;28;20603;-84
2021/06/18 08:06:15;;;;;;;4.93;1.58;;;;;;;12.85;60.32;101624.16;5004415;28;20021;-84
2021/06/18 08:08:41;;;;;;;2.88;1.23;;;;;;;12.79;60.79;101656.41;4996829;28;20022;-84
2021/06/18 08:11:07;;;;;;;5.68;1.70;;;;;;;12.82;60.11;101643.41;5011933;28;20121;-84
2021/06/18 08:13:32;;;;;;;4.78;1.58;;;;;;;12.94;59.96;101643.91;4998831;28;20124;-85
2021/06/18 08:15:58;;;;;;;5.50;1.70;;;;;;;12.98;60.20;101624.50;5011579;28;20025;-85
2021/06/18 08:18:23;;;;;;;4.13;1.70;;;;;;;13.35;58.57;101641.19;5012329;28;20756;-86
2021/06/18 08:20:48;;;;;;;3.97;1.40;;;;;;;13.66;57.56;101651.22;5000145;28;20116;-85
2021/06/18 08:23:14;;;;;;;4.25;1.40;;;;;;;13.82;56.03;101643.06;5010379;28;20687;-85
2021/06/18 08:25:40;;;;;;;2.97;1.70;;;;;;;14.17;54.01;101654.38;5025818;28;20124;-84
2021/06/18 08:28:05;;;;;;;5.40;1.30;;;;;;;14.18;52.33;101650.63;5007969;28;20014;-84
2021/06/18 08:30:31;;;;;;;5.72;1.38;;;;;;;14.36;51.00;101645.78;5007810;28;20095;-84
2021/06/18 08:32:56;;;;;;;2.95;1.35;;;;;;;14.35;49.21;101622.47;5007016;28;20021;-85
2021/06/18 08:35:22;;;;;;;6.15;1.42;;;;;;;14.59;48.46;101648.56;5009525;28;20049;-85
2021/06/18 08:37:48;;;;;;;3.45;1.20;;;;;;;14.73;48.16;101641.50;5028126;28;20025;-84
2021/06/18 08:40:14;;;;;;;3.75;1.38;;;;;;;14.84;47.89;101634.81;5000489;28;20191;-78
2021/06/18 08:42:40;;;;;;;2.50;1.30;;;;;;;15.01;47.21;101632.81;4995389;28;20623;-79
2021/06/18 08:45:07;;;;;;;10.98;1.92;;;;;;;15.16;47.95;101623.69;5019666;28;20446;-80
2021/06/18 08:47:33;;;;;;;3.90;1.67;;;;;;;15.40;47.81;101627.16;5009405;28;20049;-79
2021/06/18 08:49:58;;;;;;;6.13;1.50;;;;;;;15.67;46.42;101622.13;4998048;28;20065;-79
2021/06/18 08:52:24;;;;;;;2.92;1.40;;;;;;;15.90;45.71;101619.28;5004695;28;20025;-80
2021/06/18 08:54:51;;;;;;;6.00;1.80;;;;;;;16.02;45.81;101612.34;5013277;28;20056;-79
2021/06/18 08:57:20;;;;;;;7.10;1.50;;;;;;;15.74;46.17;101610.31;4983247;28;20068;-79
2021/06/18 08:59:47;;;;;;;9.85;2.20;;;;;;;15.38;46.98;101611.09;4990518;28;20466;-80
2021/06/18 09:02:14;;;;;;;2.88;1.27;;;;;;;15.06;48.53;101611.44;5028159;28;20036;-79
2021/06/18 09:05:12;;;;;;;4.07;1.50;;;;;;;14.75;49.32;101615.09;5006219;28;20034;-79
2021/06/18 09:07:50;;;;;;;5.40;1.95;;;;;;;14.43;50.39;101617.00;4997772;28;20025;-80
2021/06/18 09:10:24;;;;;;;4.43;1.50;;;;;;;14.28;51.25;101610.69;5022160;28;20094;-79
2021/06/18 09:13:06;;;;;;;2.83;1.45;;;;;;;14.07;51.53;101589.69;5012602;28;20028;-78
2021/06/18 09:15:32;;;;;;;3.03;1.60;;;;;;;14.05;51.46;101597.13;5002445;28;20037;-79
2021/06/18 09:18:28;;;;;;;3.55;1.48;;;;;;;14.43;50.94;101602.66;5012222;28;20029;-78
2021/06/18 09:21:15;;;;;;;3.83;1.40;;;;;;;14.41;50.77;101600.09;4988551;28;20053;-80
2021/06/18 09:23:43;;;;;;;5.15;1.25;;;;;;;14.34;50.56;101606.41;5015487;28;20091;-79
2021/06/18 09:26:28;;;;;;;4.95;1.80;;;;;;;14.35;50.02;101610.81;5019405;28;20025;-80
2021/06/18 09:29:14;;;;;;;7.38;2.25;;;;;;;14.28;50.03;101606.09;4988589;28;20644;-80
2021/06/18 09:31:46;;;;;;;2.85;1.30;;;;;;;14.26;49.79;101594.66;5010148;28;20036;-81
2021/06/18 09:34:12;;;;;;;4.85;1.30;;;;;;;14.17;49.33;101597.56;5009245;28;20022;-80
2021/06/18 09:36:38;;;;;;;3.67;1.65;;;;;;;14.18;50.01;101597.38;5021188;28;20089;-79
2021/06/18 09:39:07;;;;;;;4.95;1.30;;;;;;;14.41;49.98;101597.41;5010279;28;20048;-78
2021/06/18 09:41:32;;;;;;;11.40;2.10;;;;;;;14.47;48.06;101587.72;5001069;28;20032;-80
2021/06/18 09:43:59;;;;;;;43.80;4.68;;;;;;;14.45;47.45;101592.50;5034547;28;20124;-83
2021/06/18 09:46:43;;;;;;;15.75;3.05;;;;;;;14.50;47.63;101584.63;4995597;28;20028;-85
2021/06/18 09:49:37;;;;;;;4.05;1.58;;;;;;;14.50;46.74;101576.53;5030190;28;20031;-84
2021/06/18 09:52:03;;;;;;;3.63;1.40;;;;;;;14.49;46.68;101585.66;4988960;28;20026;-84
2021/06/18 09:54:33;;;;;;;5.75;1.90;;;;;;;14.47;47.35;101572.34;5004234;28;20049;-85
2021/06/18 09:57:15;;;;;;;4.40;1.95;;;;;;;14.60;46.61;101579.03;5030597;28;20037;-85
2021/06/18 09:59:51;;;;;;;8.50;2.20;;;;;;;14.78;46.54;101582.25;5013413;28;20100;-85
2021/06/18 10:02:18;;;;;;;5.03;1.52;;;;;;;14.94;45.58;101582.06;5010893;28;20031;-84
2021/06/18 10:04:45;;;;;;;3.50;1.65;;;;;;;15.13;45.06;101560.91;4991315;28;20121;-85
2021/06/18 10:07:11;;;;;;;4.78;1.88;;;;;;;15.62;43.42;101579.28;5012022;28;20022;-85
2021/06/18 10:09:37;;;;;;;4.63;1.67;;;;;;;16.02;42.16;101575.22;4995213;28;20033;-85
2021/06/18 10:12:04;;;;;;;7.53;1.63;;;;;;;16.37;41.34;101563.66;5009377;28;20032;-85
2021/06/18 10:14:29;;;;;;;4.50;1.80;;;;;;;16.74;41.63;101537.25;5004824;28;20029;-85
2021/06/18 10:16:55;;;;;;;4.93;1.90;;;;;;;17.23;39.72;101541.78;4997177;28;20067;-86
2021/06/18 10:19:20;;;;;;;6.65;1.70;;;;;;;17.73;40.04;101564.16;5010736;28;20522;-85
2021/06/18 10:21:50;;;;;;;4.60;1.48;;;;;;;18.34;40.15;101572.31;4989660;28;20021;-84
2021/06/18 10:24:17;;;;;;;4.28;1.48;;;;;;;18.17;40.33;101566.41;5005434;28;20017;-85
2021/06/18 10:26:48;;;;;;;6.57;1.77;;;;;;;17.60;40.72;101564.97;4990290;28;20025;-84
2021/06/18 10:29:38;;;;;;;6.93;1.70;;;;;;;17.03;42.58;101569.66;4993519;28;20029;-85
2021/06/18 10:32:26;;;;;;;3.47;1.55;;;;;;;16.48;44.01;101552.28;4993657;28;20116;-84
2021/06/18 10:34:52;;;;;;;2.92;1.50;;;;;;;16.37;44.19;101567.22;5019574;28;20022;-85
2021/06/18 10:37:21;;;;;;;4.50;1.30;;;;;;;16.17;44.04;101548.03;5002098;28;20030;-85
2021/06/18 10:39:55;;;;;;;6.53;1.83;;;;;;;16.10;44.40;101546.28;4986698;28;20463;-84
2021/06/18 10:42:22;;;;;;;3.70;1.45;;;;;;;16.07;43.84;101547.50;5024885;28;20033;-84
2021/06/18 10:44:49;;;;;;;5.18;1.80;;;;;;;16.08;43.63;101560.03;4993277;28;20108;-85
2021/06/18 10:47:25;;;;;;;10.43;1.92;;;;;;;16.03;43.97;101557.06;5003545;28;20017;-84
2021/06/18 10:49:51;;;;;;;4.75;1.70;;;;;;;15.96;44.87;101557.00;5021238;28;20084;-84
2021/06/18 10:52:19;;;;;;;7.93;2.08;;;;;;;15.96;44.26;101562.41;4990697;28;20026;-84
2021/06/18 10:54:55;;;;;;;3.90;1.55;;;;;;;15.87;44.57;101558.13;4996653;28;20025;-84
2021/06/18 10:57:24;;;;;;;4.97;1.90;;;;;;;15.80;44.44;101557.25;5005262;28;20034;-84
2021/06/18 10:59:58;;;;;;;6.28;2.00;;;;;;;15.75;44.72;101551.53;5009129;28;20021;-85
2021/06/18 11:02:25;;;;;;;3.65;1.42;;;;;;;15.70;44.48;101543.97;5006453;28;20017;-84
2021/06/18 11:04:53;;;;;;;4.72;1.83;;;;;;;15.43;43.88;101531.94;5028104;28;20021;-85
2021/06/18 11:07:25;;;;;;;6.35;1.65;;;;;;;15.69;44.37;101544.16;5009005;28;20017;-84
2021/06/18 11:09:52;;;;;;;3.95;1.60;;;;;;;15.95;44.19;101538.19;5000713;28;20038;-85
2021/06/18 11:12:26;;;;;;;6.82;1.70;;;;;;;15.93;43.63;101530.25;5001661;28;20022;-85
2021/06/18 11:15:14;;;;;;;7.95;2.03;;;;;;;15.83;44.20;101510.75;5024043;28;20029;-84
2021/06/18 11:17:52;;;;;;;4.38;1.70;;;;;;;15.90;44.07;101518.94;5005993;28;20116;-85
2021/06/18 11:20:23;;;;;;;3.80;2.00;;;;;;;15.98;44.07;101514.25;4999974;28;20041;-84
2021/06/18 11:23:05;;;;;;;4.30;1.67;;;;;;;16.17;43.69;101520.06;5003429;28;20022;-84
2021/06/18 11:25:40;;;;;;;4.70;2.22;;;;;;;16.18;42.14;101516.31;4999126;28;20092;-85
2021/06/18 11:28:21;;;;;;;8.25;6.05;;;;;;;16.03;42.52;101516.38;5010889;28;20037;-85
2021/06/18 11:31:05;;;;;;;4.65;2.13;;;;;;;16.06;43.08;101518.69;5029533;28;20206;-85
2021/06/18 11:33:46;;;;;;;8.18;1.90;;;;;;;16.10;42.58;101509.13;5009274;28;20036;-85
2021/06/18 11:36:17;;;;;;;3.55;1.50;;;;;;;16.20;43.60;101508.81;5024135;28;20033;-85
2021/06/18 11:39:03;;;;;;;9.30;1.80;;;;;;;16.20;43.01;101490.66;5010448;28;20029;-85